PDT,Max TemperatureF,Mean TemperatureF,Min TemperatureF,Max Dew PointF,MeanDew PointF,Min DewpointF,Max Humidity, Mean Humidity, Min Humidity, Max Sea Level PressureIn, Mean Sea Level PressureIn, Min Sea Level PressureIn, Max VisibilityMiles, Mean VisibilityMiles, Min VisibilityMiles, Max Wind SpeedMPH, Mean Wind SpeedMPH, Max Gust SpeedMPH,PrecipitationIn, CloudCover, Events, WindDirDegrees
2013-9-1,80,62,44,50,46,39,87,54,28,30.29,30.23,30.16,10,10,7,21,4,31,0.00,3,,246
2013-9-2,78,62,46,46,42,36,76,45,21,30.26,30.21,30.16,10,10,10,24,5,38,0.00,2,,214
2013-9-3,73,60,48,55,45,39,100,60,29,30.30,30.26,30.22,10,10,4,20,5,28,0.38,6,Rain,252
2013-9-4,80,61,42,52,43,30,100,59,16,30.33,30.29,30.24,10,10,10,20,4,31,0.00,2,,264
2013-9-5,78,64,50,43,36,28,71,37,17,30.29,30.26,30.23,10,10,10,29,6,40,0.00,1,,222
2013-9-6,82,60,39,36,32,25,76,36,12,30.30,30.25,30.20,10,10,10,21,6,32,0.00,0,,206
2013-9-7,80,58,37,34,27,19,75,33,10,30.28,30.24,30.20,10,10,10,25,5,33,0.00,0,,287
2013-9-8,82,60,39,36,27,19,52,30,12,30.26,30.21,30.14,10,10,10,14,3,18,0.00,2,,309
2013-9-9,80,62,44,30,26,19,50,28,11,30.22,30.17,30.09,10,10,10,13,3,22,0.00,1,,333
2013-9-10,80,62,44,34,29,18,53,33,11,30.21,30.16,30.10,10,10,10,21,5,31,0.00,2,,301
2013-9-11,77,62,48,37,31,21,54,35,12,30.25,30.23,30.20,10,10,10,16,5,23,0.00,3,,302
2013-9-12,73,62,50,45,37,32,59,41,22,30.25,30.21,30.16,10,10,7,16,4,23,0.01,6,Rain,279
2013-9-13,78,60,42,45,38,30,81,46,17,30.24,30.17,30.09,10,10,10,15,5,28,0.00,4,Rain,307
2013-9-14,80,61,42,45,38,32,81,45,18,30.17,30.12,30.06,10,10,10,16,4,18,0.00,3,Rain,259
2013-9-15,78,60,41,39,32,27,70,38,15,30.16,30.13,30.10,10,10,10,22,5,30,0.00,0,,215
2013-9-16,80,58,35,34,29,23,70,34,14,30.18,30.13,30.07,10,10,10,24,5,31,0.00,0,,180
2013-9-17,71,55,39,32,25,14,61,33,12,30.09,30.00,29.93,10,10,10,34,9,55,0.00,0,,202
2013-9-18,71,52,32,27,18,10,60,29,9,30.18,30.09,30.05,10,10,10,16,5,21,0.00,0,,283
2013-9-19,75,52,28,25,18,9,69,30,9,30.20,30.16,30.10,10,10,10,10,5,18,0.00,0,,74
2013-9-20,75,52,30,28,17,14,55,27,11,30.14,30.06,29.99,10,10,10,20,6,32,0.00,0,,226
2013-9-21,66,52,37,39,26,10,93,45,14,30.01,29.92,29.83,10,10,2,30,10,40,0.07,3,Rain,190
2013-9-22,64,47,30,34,26,19,80,51,18,30.15,30.00,29.87,10,10,10,14,7,20,0.00,0,,299
2013-9-23,75,52,30,34,24,1,93,49,7,30.23,30.18,30.15,10,10,2,13,3,16,0.00,0,,83
2013-9-24,71,50,30,30,24,14,75,39,12,30.22,30.10,29.92,10,10,10,39,8,52,0.00,0,,229
2013-9-25,59,47,35,27,19,5,70,33,12,29.92,29.82,29.78,10,10,10,36,24,55,0.00,0,,250
2013-9-26,50,40,30,28,22,16,93,56,27,30.12,29.93,29.83,10,10,2,16,12,23,0.00,5,Snow,297
2013-9-27,60,42,24,23,17,7,86,45,12,30.27,30.18,30.12,10,10,10,12,5,16,0.00,0,,271
2013-9-28,68,44,21,21,17,14,74,39,13,30.31,30.26,30.22,10,10,10,13,3,24,0.00,0,,100
2013-9-29,68,50,32,23,18,14,56,30,12,30.31,30.26,30.22,10,10,10,25,7,34,0.00,0,,229
2013-9-30,71,58,42,28,21,10,53,26,12,30.23,30.18,30.14,10,10,10,23,8,37,0.00,0,,260